CYCO

Kugluktuk Airport

Kugluktuk, Canada
METAR CYCO 191700Z 33010KT 15SM FEW018 SCT034 SCT080 SCT250 08/02 A2988 RMK CF1CU4AC1CI1 CF TR AC TR CI TR SLP121
Observed Flight Rules
Aug-19 @ 17:00 UTC (13 minutes ago) Visual Flight Rules
Wind Visibility Clouds
330° at 10 knots 15 miles
  • Few at 1,800' AGL
  • Scattered at 3,400' AGL
  • Scattered at 8,000' AGL
  • Scattered at 25,000' AGL
Temperatures Readings
Current 8°C / 46°F
Dewpoint 2°C / 36°F
Humidity 66%
Altimeter 29.88" Hg
Pressure 1012.1 hPa
Elevation 22
METAR CYCO 191700Z 33010KT 15SM FEW018 SCT034 SCT080 SCT250 08/02 A2988 RMK CF1CU4AC1CI1 CF TR AC TR CI TR SLP121
Observed Flight Rules
Aug-19 @ 17:00 UTC
(13 minutes ago)
VFR
Wind Visibility
330° at 10 knots 15 miles
Clouds
  • Few at 1,800' AGL
  • Scattered at 3,400' AGL
  • Scattered at 8,000' AGL
  • Scattered at 25,000' AGL
Temperature Dewpoint
8°C / 46°F 2°C / 36°F
Humidity Altimeter Pressure
66% 29.88" Hg 1012.1 hPa